Time;durP1;ratioP1;P1;durP2;ratioP2;P2;SDS_P1;SDS_P2;PMS_P1;PMS_P2;Temp;Humidity;BMP_temperature;BMP_pressure;BME280_temperature;BME280_humidity;BME280_pressure;Samples;Min_cycle;Max_cycle;Signal;HPM_P1;HPM_P2
2023/02/10 00:00:56;;;;;;;24.10;7.68;;;;;;;1.35;100.00;103556.63;5031564;28;20061;-44
2023/02/10 00:03:21;;;;;;;22.42;8.38;;;;;;;1.33;100.00;103555.81;5032518;28;20020;-44
2023/02/10 00:05:46;;;;;;;38.35;8.95;;;;;;;1.36;100.00;103547.75;5032533;28;20388;-43
2023/02/10 00:08:12;;;;;;;33.20;6.78;;;;;;;1.49;100.00;103549.91;5017250;28;20530;-43
2023/02/10 00:10:37;;;;;;;37.10;6.68;;;;;;;1.58;100.00;103550.47;5020249;28;20162;-44
2023/02/10 00:13:03;;;;;;;32.08;7.88;;;;;;;1.62;100.00;103549.44;5032283;28;20025;-43
2023/02/10 00:15:28;;;;;;;28.00;8.00;;;;;;;1.46;100.00;103547.34;5025203;28;20030;-43
2023/02/10 00:17:53;;;;;;;38.50;8.38;;;;;;;1.35;100.00;103544.25;5012844;28;20022;-44
2023/02/10 00:20:19;;;;;;;37.65;8.77;;;;;;;1.29;100.00;103534.72;5030288;28;20333;-43
2023/02/10 00:22:44;;;;;;;33.47;8.30;;;;;;;1.31;100.00;103527.53;5015117;28;20257;-43
2023/02/10 00:25:09;;;;;;;24.90;7.60;;;;;;;1.41;100.00;103516.59;5025583;28;20048;-43
2023/02/10 00:27:35;;;;;;;35.22;7.65;;;;;;;1.50;100.00;103517.13;5032057;28;20018;-43
2023/02/10 00:30:00;;;;;;;27.38;7.55;;;;;;;1.50;100.00;103533.06;5031018;28;20382;-43
2023/02/10 00:32:25;;;;;;;33.75;9.85;;;;;;;1.48;100.00;103529.59;5030031;28;20053;-43
2023/02/10 00:34:51;;;;;;;25.70;8.43;;;;;;;1.38;100.00;103528.19;5030894;28;20104;-42
2023/02/10 00:37:16;;;;;;;37.85;9.27;;;;;;;1.29;100.00;103525.88;5021755;28;20080;-43
2023/02/10 00:39:41;;;;;;;27.65;8.07;;;;;;;1.20;100.00;103520.91;5026271;28;20508;-42
2023/02/10 00:42:07;;;;;;;28.73;8.10;;;;;;;1.13;100.00;103522.91;5029712;28;20120;-43
2023/02/10 00:44:32;;;;;;;29.80;8.10;;;;;;;1.06;100.00;103524.91;5030648;28;20035;-41
2023/02/10 00:46:57;;;;;;;25.38;7.53;;;;;;;1.03;100.00;103519.72;5014010;28;20088;-43
2023/02/10 00:49:23;;;;;;;25.25;7.93;;;;;;;1.02;100.00;103517.97;5023666;28;20052;-44
2023/02/10 00:51:48;;;;;;;21.92;7.53;;;;;;;1.02;100.00;103525.94;5030400;28;20036;-44
2023/02/10 00:54:13;;;;;;;25.15;8.73;;;;;;;1.01;100.00;103523.34;5031635;28;20056;-43
2023/02/10 00:56:40;;;;;;;29.58;8.65;;;;;;;0.92;100.00;103523.66;5031527;28;20045;-45
2023/02/10 00:59:05;;;;;;;22.90;7.25;;;;;;;0.86;100.00;103525.59;5031047;28;20036;-44
2023/02/10 01:01:31;;;;;;;20.27;6.82;;;;;;;0.81;100.00;103522.25;5030002;28;20717;-42
2023/02/10 01:03:56;;;;;;;27.45;8.20;;;;;;;0.83;100.00;103524.84;5030276;28;20022;-44
2023/02/10 01:06:22;;;;;;;29.10;8.23;;;;;;;0.83;100.00;103531.00;5029760;28;20086;-42
2023/02/10 01:08:47;;;;;;;30.35;7.90;;;;;;;0.81;100.00;103527.53;5028996;28;20032;-46
2023/02/10 01:11:13;;;;;;;20.75;7.38;;;;;;;0.78;100.00;103527.66;5019457;28;20060;-44
2023/02/10 01:13:40;;;;;;;23.48;7.88;;;;;;;0.75;100.00;103537.50;5031505;28;20111;-44
2023/02/10 01:16:11;;;;;;;25.52;7.40;;;;;;;0.75;100.00;103535.72;5029469;28;20030;-43
2023/02/10 01:18:37;;;;;;;35.30;9.07;;;;;;;0.76;100.00;103552.47;5026441;28;20038;-43
2023/02/10 01:21:17;;;;;;;24.63;7.97;;;;;;;0.71;100.00;103539.41;5022504;28;20030;-41
2023/02/10 01:23:43;;;;;;;20.58;6.88;;;;;;;0.69;100.00;103537.72;5011884;28;20077;-43
2023/02/10 01:26:08;;;;;;;18.60;7.28;;;;;;;0.63;100.00;103537.00;5012072;28;20409;-42
2023/02/10 01:28:36;;;;;;;27.70;11.93;;;;;;;0.59;100.00;103534.50;5019368;28;20029;-42
2023/02/10 01:31:09;;;;;;;29.53;12.17;;;;;;;0.49;100.00;103533.06;5030649;28;20029;-45
2023/02/10 01:33:34;;;;;;;28.70;11.95;;;;;;;0.44;100.00;103539.38;5031682;28;20041;-43
2023/02/10 01:36:06;;;;;;;18.27;8.98;;;;;;;0.43;100.00;103534.13;5015538;28;20125;-41
2023/02/10 01:38:32;;;;;;;22.75;8.30;;;;;;;0.38;100.00;103538.72;5026191;28;20049;-43
2023/02/10 01:40:57;;;;;;;28.90;8.00;;;;;;;0.38;100.00;103546.66;5026966;28;20021;-43
2023/02/10 01:43:23;;;;;;;23.20;7.05;;;;;;;0.40;100.00;103548.34;5029260;28;20112;-43
2023/02/10 01:45:48;;;;;;;18.95;8.23;;;;;;;0.44;100.00;103554.41;5028507;28;20057;-44
2023/02/10 01:48:14;;;;;;;25.58;8.45;;;;;;;0.41;100.00;103550.06;5029198;28;20021;-42
2023/02/10 01:50:52;;;;;;;21.27;7.40;;;;;;;0.43;100.00;103555.34;5013291;28;20121;-43
2023/02/10 01:53:18;;;;;;;22.70;8.80;;;;;;;0.46;100.00;103557.88;5028829;28;20033;-43
2023/02/10 01:55:46;;;;;;;20.80;7.75;;;;;;;0.46;100.00;103557.00;5027293;28;20026;-44
2023/02/10 01:58:14;;;;;;;21.48;7.75;;;;;;;0.39;100.00;103554.53;5029803;28;20025;-43
2023/02/10 02:00:40;;;;;;;23.83;9.02;;;;;;;0.37;100.00;103555.50;5029187;28;20056;-44
2023/02/10 02:03:05;;;;;;;21.45;7.60;;;;;;;0.36;100.00;103548.50;5030076;28;20511;-43
2023/02/10 02:05:36;;;;;;;19.83;7.05;;;;;;;0.32;100.00;103545.06;5029664;28;20021;-44
2023/02/10 02:08:12;;;;;;;24.85;7.95;;;;;;;0.26;100.00;103539.09;5029862;28;20492;-43
2023/02/10 02:10:50;;;;;;;27.70;8.50;;;;;;;0.19;100.00;103543.75;5014062;28;20068;-42
2023/02/10 02:13:35;;;;;;;25.45;7.97;;;;;;;0.20;100.00;103535.72;5030130;28;20036;-43
2023/02/10 02:16:26;;;;;;;33.15;8.60;;;;;;;0.20;100.00;103545.47;5018787;28;20440;-43
2023/02/10 02:18:57;;;;;;;38.88;9.30;;;;;;;0.20;100.00;103540.16;5025066;28;20021;-43
2023/02/10 02:21:23;;;;;;;48.20;11.30;;;;;;;0.21;100.00;103540.13;5029943;28;20029;-43
2023/02/10 02:24:15;;;;;;;29.58;9.30;;;;;;;0.27;100.00;103533.75;5020189;28;20101;-43
2023/02/10 02:27:18;;;;;;;34.40;11.52;;;;;;;0.29;100.00;103539.00;5010546;28;20064;-44
2023/02/10 02:29:43;;;;;;;30.73;9.77;;;;;;;0.31;100.00;103542.47;5020259;28;20034;-44
2023/02/10 02:32:19;;;;;;;32.38;8.10;;;;;;;0.13;100.00;103543.91;5012687;28;20060;-42
2023/02/10 02:35:07;;;;;;;36.47;10.13;;;;;;;0.06;100.00;103543.25;5025002;28;20393;-43
2023/02/10 02:37:33;;;;;;;;;;;;;;;0.07;100.00;103550.25;5013810;28;20026;-44
2023/02/10 02:39:59;;;;;;;37.17;10.65;;;;;;;0.15;100.00;103552.69;5020560;28;19924;-44
2023/02/10 02:42:25;;;;;;;37.10;11.15;;;;;;;0.21;100.00;103563.97;5009969;28;20026;-43
2023/02/10 02:44:54;;;;;;;50.15;14.45;;;;;;;0.34;100.00;103567.09;5011004;28;20022;-43
2023/02/10 02:47:31;;;;;;;37.70;13.05;;;;;;;0.52;100.00;103565.63;5009979;28;20051;-47
2023/02/10 02:50:04;;;;;;;40.88;13.40;;;;;;;0.52;100.00;103573.56;5008815;28;20022;-43
2023/02/10 02:52:54;;;;;;;43.67;11.32;;;;;;;0.49;100.00;103573.66;5010258;28;20034;-42
2023/02/10 02:55:36;;;;;;;28.90;11.27;;;;;;;0.48;100.00;103576.38;5014653;28;20026;-43
2023/02/10 02:58:25;;;;;;;44.13;13.48;;;;;;;0.50;100.00;103578.06;5030806;28;20041;-42
2023/02/10 03:00:51;;;;;;;38.53;12.05;;;;;;;0.56;100.00;103575.22;5029892;28;20030;-42
2023/02/10 03:03:17;;;;;;;42.58;13.63;;;;;;;0.62;100.00;103575.00;5014676;28;20107;-42
2023/02/10 03:05:42;;;;;;;44.53;14.07;;;;;;;0.66;100.00;103581.09;5021057;28;20036;-43
2023/02/10 03:08:07;;;;;;;39.20;14.05;;;;;;;0.66;100.00;103583.75;5033445;28;20033;-42
2023/02/10 03:10:33;;;;;;;38.63;11.00;;;;;;;0.62;100.00;103582.09;5028875;28;20022;-44
2023/02/10 03:12:58;;;;;;;37.80;12.48;;;;;;;0.56;100.00;103579.66;5029485;28;20033;-43
2023/02/10 03:15:23;;;;;;;39.20;13.43;;;;;;;0.52;100.00;103581.50;5015066;28;20029;-43
2023/02/10 03:17:49;;;;;;;40.05;13.55;;;;;;;0.53;100.00;103580.63;5020224;28;20029;-43
2023/02/10 03:20:15;;;;;;;36.83;12.60;;;;;;;0.53;100.00;103577.97;5032216;28;20029;-44
2023/02/10 03:22:41;;;;;;;46.25;12.73;;;;;;;0.54;100.00;103577.03;5031727;28;20037;-42
2023/02/10 03:25:07;;;;;;;41.72;12.13;;;;;;;0.51;100.00;103579.78;5031522;28;20034;-43
2023/02/10 03:27:32;;;;;;;35.70;12.73;;;;;;;0.48;100.00;103571.94;5032633;28;20044;-43
2023/02/10 03:29:57;;;;;;;33.25;11.65;;;;;;;0.46;100.00;103581.72;5026561;28;20046;-43
2023/02/10 03:32:23;;;;;;;37.72;12.02;;;;;;;0.48;100.00;103577.25;5031635;28;20492;-43
2023/02/10 03:34:48;;;;;;;34.00;12.20;;;;;;;0.46;100.00;103581.72;5028274;28;20026;-43
2023/02/10 03:37:14;;;;;;;32.20;12.07;;;;;;;0.46;100.00;103581.72;5012954;28;20493;-43
2023/02/10 03:39:40;;;;;;;39.80;12.07;;;;;;;0.42;100.00;103577.44;5019383;28;20076;-42
2023/02/10 03:42:06;;;;;;;32.58;10.95;;;;;;;0.37;100.00;103577.59;5030991;28;20061;-43
2023/02/10 03:44:32;;;;;;;34.10;12.48;;;;;;;0.33;100.00;103578.59;5015111;28;20034;-43
2023/02/10 03:46:57;;;;;;;35.95;12.15;;;;;;;0.22;100.00;103573.63;5030516;28;20026;-43
2023/02/10 03:49:23;;;;;;;39.03;11.85;;;;;;;0.21;100.00;103574.56;5027704;28;20029;-44
2023/02/10 03:51:48;;;;;;;41.78;12.77;;;;;;;0.19;100.00;103567.56;5013448;28;20487;-43
2023/02/10 03:54:14;;;;;;;34.67;11.90;;;;;;;0.16;100.00;103570.31;5013047;28;20038;-43
2023/02/10 03:56:39;;;;;;;45.20;13.27;;;;;;;0.10;100.00;103576.63;5043892;28;20096;-43
2023/02/10 03:59:05;;;;;;;39.60;12.95;;;;;;;0.06;100.00;103572.38;5012911;28;20575;-44
2023/02/10 04:01:30;;;;;;;33.85;11.50;;;;;;;0.13;100.00;103570.38;5020018;28;20381;-43
2023/02/10 04:03:56;;;;;;;44.25;13.20;;;;;;;0.32;100.00;103571.56;5032465;28;20034;-43
2023/02/10 04:06:21;;;;;;;45.63;13.85;;;;;;;0.60;100.00;103575.97;5032398;28;20128;-43
2023/02/10 04:08:48;;;;;;;38.28;13.77;;;;;;;0.64;100.00;103581.13;5027275;28;20048;-42
2023/02/10 04:11:13;;;;;;;44.67;14.48;;;;;;;0.68;100.00;103584.53;5045466;28;20025;-43
2023/02/10 04:13:39;;;;;;;44.30;15.07;;;;;;;0.70;100.00;103587.16;5032027;28;20396;-43
2023/02/10 04:16:10;;;;;;;41.38;13.00;;;;;;;0.64;100.00;103589.09;5030001;28;20124;-44
2023/02/10 04:18:36;;;;;;;37.95;13.85;;;;;;;0.57;100.00;103592.84;5032249;28;20425;-43
2023/02/10 04:21:06;;;;;;;44.42;13.73;;;;;;;0.54;100.00;103587.63;5024314;28;20417;-42
2023/02/10 04:23:31;;;;;;;48.80;14.25;;;;;;;0.66;100.00;103586.41;5032350;28;20115;-43
2023/02/10 04:25:57;;;;;;;46.00;13.55;;;;;;;0.68;100.00;103588.97;5032134;28;20037;-43
2023/02/10 04:28:22;;;;;;;35.17;12.75;;;;;;;0.60;100.00;103587.44;5031383;28;20381;-44
2023/02/10 04:30:52;;;;;;;33.25;12.85;;;;;;;0.54;100.00;103590.28;5017813;28;20404;-43
2023/02/10 04:33:18;;;;;;;39.75;13.07;;;;;;;0.46;100.00;103587.03;5011976;28;20104;-43
2023/02/10 04:35:44;;;;;;;40.97;12.98;;;;;;;0.39;100.00;103585.47;5028655;28;20041;-43
2023/02/10 04:38:10;;;;;;;39.72;13.60;;;;;;;0.36;100.00;103588.22;5027332;28;20054;-44
2023/02/10 04:40:35;;;;;;;49.17;14.05;;;;;;;0.37;100.00;103579.34;5020500;28;20025;-43
2023/02/10 04:43:00;;;;;;;41.33;13.85;;;;;;;0.43;100.00;103573.88;5031748;28;20245;-43
2023/02/10 04:45:26;;;;;;;46.83;14.40;;;;;;;0.57;100.00;103576.06;5028554;28;20053;-43
2023/02/10 04:47:51;;;;;;;44.92;14.90;;;;;;;0.73;100.00;103592.34;5031779;28;20025;-43
2023/02/10 04:50:16;;;;;;;50.17;15.63;;;;;;;0.81;100.00;103596.47;5029981;28;20033;-45
2023/02/10 04:52:42;;;;;;;56.47;16.75;;;;;;;0.96;100.00;103599.53;5031646;28;20052;-46
2023/02/10 04:55:07;;;;;;;73.32;19.50;;;;;;;1.11;100.00;103596.38;5031371;28;20057;-43
2023/02/10 04:57:32;;;;;;;63.22;18.83;;;;;;;1.16;100.00;103599.75;5031750;28;20056;-43
2023/02/10 04:59:58;;;;;;;70.88;21.80;;;;;;;1.26;100.00;103602.91;5025609;28;20033;-43
2023/02/10 05:02:23;;;;;;;72.93;21.40;;;;;;;1.33;100.00;103600.94;5011978;28;20065;-43
2023/02/10 05:04:48;;;;;;;75.15;22.17;;;;;;;1.30;100.00;103593.94;5011530;28;20021;-43
2023/02/10 05:07:14;;;;;;;79.57;22.98;;;;;;;1.32;100.00;103589.47;5013787;28;20058;-42
2023/02/10 05:09:39;;;;;;;83.15;24.52;;;;;;;1.33;100.00;103585.88;5008150;28;20041;-44
2023/02/10 05:12:05;;;;;;;76.03;24.30;;;;;;;1.33;100.00;103587.66;5011451;28;20439;-44
2023/02/10 05:14:30;;;;;;;68.60;23.10;;;;;;;1.28;100.00;103586.03;5025843;28;20029;-43
2023/02/10 05:16:55;;;;;;;91.20;24.52;;;;;;;1.31;100.00;103585.06;5014064;28;20058;-43
2023/02/10 05:19:21;;;;;;;83.95;22.48;;;;;;;1.25;100.00;103586.13;5026003;28;20448;-42
2023/02/10 05:21:46;;;;;;;77.78;25.52;;;;;;;1.26;100.00;103587.91;5011534;28;20354;-44
2023/02/10 05:24:11;;;;;;;82.57;24.17;;;;;;;1.18;100.00;103584.63;5015890;28;20034;-44
2023/02/10 05:26:37;;;;;;;73.93;24.55;;;;;;;1.10;100.00;103584.88;5020358;28;20156;-43
2023/02/10 05:29:02;;;;;;;75.22;24.13;;;;;;;1.01;100.00;103582.56;5011476;28;20375;-42
2023/02/10 05:31:28;;;;;;;93.50;27.45;;;;;;;0.98;100.00;103585.31;5012597;28;20036;-43
2023/02/10 05:33:53;;;;;;;89.80;25.98;;;;;;;1.02;100.00;103586.94;5011029;28;20412;-43
2023/02/10 05:36:19;;;;;;;93.90;27.83;;;;;;;1.13;100.00;103577.75;5017456;28;20461;-43
2023/02/10 05:39:22;;;;;;;87.20;27.80;;;;;;;1.15;100.00;103568.81;5010618;28;20060;-42
2023/02/10 05:41:30;;;;;;;83.63;26.55;;;;;;;1.20;100.00;103574.81;5018045;28;20507;-43
2023/02/10 05:43:55;;;;;;;94.28;28.85;;;;;;;1.25;100.00;103567.56;5026890;28;20026;-44
2023/02/10 05:46:20;;;;;;;100.20;27.75;;;;;;;1.32;100.00;103560.28;5030168;28;20053;-44
2023/02/10 05:48:46;;;;;;;97.07;30.27;;;;;;;1.46;100.00;103565.94;5030825;28;20095;-43
2023/02/10 05:51:11;;;;;;;92.53;29.80;;;;;;;1.49;100.00;103570.25;5025605;28;20033;-42
2023/02/10 05:53:36;;;;;;;96.63;28.73;;;;;;;1.45;100.00;103577.47;5020850;28;20032;-44
2023/02/10 05:56:02;;;;;;;96.20;29.02;;;;;;;1.49;100.00;103587.03;5015561;28;20083;-43
2023/02/10 05:58:27;;;;;;;108.18;29.63;;;;;;;1.53;100.00;103591.34;5029093;28;20029;-42
2023/02/10 06:00:53;;;;;;;83.88;28.17;;;;;;;1.49;100.00;103589.69;5020880;28;20037;-43
2023/02/10 06:03:18;;;;;;;86.78;27.83;;;;;;;1.46;100.00;103597.78;5027521;28;20044;-43
2023/02/10 06:05:45;;;;;;;77.90;26.63;;;;;;;1.46;100.00;103594.25;5028880;28;20544;-43
2023/02/10 06:08:10;;;;;;;86.53;28.30;;;;;;;1.47;100.00;103601.28;5030620;28;20025;-45
2023/02/10 06:10:36;;;;;;;79.05;27.25;;;;;;;1.43;100.00;103597.91;5030540;28;20044;-45
2023/02/10 06:13:01;;;;;;;75.93;26.23;;;;;;;1.42;100.00;103595.28;5038762;28;20034;-43
2023/02/10 06:15:26;;;;;;;80.35;26.83;;;;;;;1.41;100.00;103597.06;5015936;28;20112;-43
2023/02/10 06:17:52;;;;;;;77.88;25.75;;;;;;;1.40;100.00;103599.81;5017786;28;20076;-43
2023/02/10 06:20:17;;;;;;;77.82;26.73;;;;;;;1.41;100.00;103602.38;5012733;28;20091;-44
2023/02/10 06:22:42;;;;;;;88.40;27.10;;;;;;;1.42;100.00;103614.75;5029536;28;20033;-43
2023/02/10 06:25:08;;;;;;;75.07;24.92;;;;;;;1.43;100.00;103626.22;5019565;28;20528;-44
2023/02/10 06:27:33;;;;;;;76.05;25.45;;;;;;;1.43;100.00;103631.53;5021086;28;20025;-43
2023/02/10 06:29:58;;;;;;;69.30;25.48;;;;;;;1.43;100.00;103629.75;5028284;28;20029;-44
2023/02/10 06:32:24;;;;;;;73.15;26.50;;;;;;;1.46;100.00;103636.72;5028414;28;20081;-43
2023/02/10 06:34:49;;;;;;;73.72;26.55;;;;;;;1.46;100.00;103634.94;5029703;28;20037;-43
2023/02/10 06:37:14;;;;;;;73.78;25.40;;;;;;;1.45;100.00;103640.28;5028629;28;20040;-44
2023/02/10 06:39:40;;;;;;;76.55;25.08;;;;;;;1.39;100.00;103638.72;5011766;28;20040;-44
2023/02/10 06:42:05;;;;;;;65.88;24.83;;;;;;;1.38;100.00;103638.78;5021563;28;20061;-45
2023/02/10 06:44:31;;;;;;;74.65;25.75;;;;;;;1.30;100.00;103637.25;5046653;28;20033;-43
2023/02/10 06:46:56;;;;;;;74.65;26.13;;;;;;;1.34;100.00;103632.69;5032536;28;20070;-44
2023/02/10 06:49:21;;;;;;;67.25;24.52;;;;;;;1.39;100.00;103614.84;5030047;28;20025;-44
2023/02/10 06:51:47;;;;;;;66.40;23.10;;;;;;;1.42;100.00;103614.75;5029242;28;20136;-43
2023/02/10 06:54:12;;;;;;;63.45;23.95;;;;;;;1.44;100.00;103612.88;5029991;28;20056;-44
2023/02/10 06:56:39;;;;;;;68.25;22.92;;;;;;;1.45;100.00;103619.94;5029975;28;20053;-46
2023/02/10 06:59:04;;;;;;;75.20;23.42;;;;;;;1.49;100.00;103618.91;5029718;28;20048;-42
2023/02/10 07:01:30;;;;;;;62.35;24.15;;;;;;;1.56;100.00;103610.72;5027990;28;20057;-44
2023/02/10 07:03:55;;;;;;;58.53;21.38;;;;;;;1.58;100.00;103614.19;5022701;28;20018;-44
2023/02/10 07:06:20;;;;;;;59.10;23.00;;;;;;;1.62;100.00;103606.06;5029147;28;20120;-45
2023/02/10 07:08:46;;;;;;;58.72;21.85;;;;;;;1.68;100.00;103610.28;5028329;28;20018;-44
2023/02/10 07:11:11;;;;;;;61.50;23.13;;;;;;;1.71;100.00;103628.75;5019549;28;20095;-45
2023/02/10 07:13:36;;;;;;;61.35;21.25;;;;;;;1.72;100.00;103630.50;5014294;28;20472;-43
2023/02/10 07:16:02;;;;;;;58.28;22.00;;;;;;;1.70;100.00;103629.66;5027299;28;20065;-42
2023/02/10 07:18:29;;;;;;;59.72;21.17;;;;;;;1.66;100.00;103634.25;5028267;28;20465;-43
2023/02/10 07:20:55;;;;;;;56.47;21.70;;;;;;;1.62;100.00;103642.34;5029065;28;20029;-43
2023/02/10 07:23:20;;;;;;;50.67;21.17;;;;;;;1.60;100.00;103642.41;5033549;28;20116;-44
2023/02/10 07:25:46;;;;;;;54.80;21.98;;;;;;;1.60;100.00;103649.50;5017560;28;20059;-44
2023/02/10 07:28:11;;;;;;;57.45;22.20;;;;;;;1.60;100.00;103655.69;5026279;28;20034;-43
2023/02/10 07:30:37;;;;;;;54.25;21.83;;;;;;;1.63;100.00;103655.56;5029854;28;20032;-43
2023/02/10 07:33:03;;;;;;;52.65;21.70;;;;;;;1.68;100.00;103652.75;5030534;28;20716;-44
2023/02/10 07:35:28;;;;;;;67.00;22.42;;;;;;;1.66;100.00;103638.66;5029970;28;20030;-43
2023/02/10 07:37:54;;;;;;;52.58;21.77;;;;;;;1.69;100.00;103643.88;5019108;28;20439;-42
2023/02/10 07:40:19;;;;;;;62.63;21.52;;;;;;;1.67;100.00;103641.28;5020130;28;20026;-42
2023/02/10 07:42:44;;;;;;;59.25;22.65;;;;;;;1.72;100.00;103641.13;5018988;28;20030;-42
2023/02/10 07:45:11;;;;;;;52.22;23.58;;;;;;;1.73;100.00;103650.78;5021142;28;20017;-44
2023/02/10 07:47:36;;;;;;;66.40;24.73;;;;;;;1.80;100.00;103647.00;5018134;28;20026;-42
2023/02/10 07:50:02;;;;;;;61.05;23.75;;;;;;;1.82;100.00;103645.16;5020360;28;20076;-43
2023/02/10 07:52:27;;;;;;;63.33;24.10;;;;;;;1.85;100.00;103650.38;5024134;28;20481;-45
2023/02/10 07:54:53;;;;;;;65.80;23.80;;;;;;;1.91;100.00;103663.41;5022502;28;20025;-44
2023/02/10 07:57:18;;;;;;;52.90;22.92;;;;;;;1.94;100.00;103671.25;5023082;28;20362;-44
2023/02/10 07:59:44;;;;;;;58.50;23.08;;;;;;;1.92;100.00;103659.84;5024204;28;20052;-44
2023/02/10 08:02:10;;;;;;;57.47;24.15;;;;;;;1.95;100.00;103669.50;5021973;28;20438;-43
2023/02/10 08:04:35;;;;;;;61.15;23.67;;;;;;;1.96;100.00;103674.72;5023373;28;20318;-45
2023/02/10 08:07:01;;;;;;;58.75;24.10;;;;;;;1.97;100.00;103675.59;5022587;28;20493;-43
2023/02/10 08:09:26;;;;;;;62.05;23.58;;;;;;;1.95;100.00;103662.38;5022408;28;20238;-44
2023/02/10 08:11:51;;;;;;;51.65;21.58;;;;;;;1.98;100.00;103664.91;5023739;28;20388;-43
2023/02/10 08:14:17;;;;;;;53.72;23.15;;;;;;;2.12;100.00;103674.16;5019747;28;20068;-43
2023/02/10 08:16:42;;;;;;;50.50;22.67;;;;;;;2.27;100.00;103668.28;5023443;28;20125;-43
2023/02/10 08:19:07;;;;;;;53.63;23.05;;;;;;;2.37;100.00;103672.31;5022465;28;20030;-43
2023/02/10 08:21:33;;;;;;;46.28;21.95;;;;;;;2.54;100.00;103676.13;5022474;28;20025;-43
2023/02/10 08:23:58;;;;;;;64.68;22.67;;;;;;;2.81;100.00;103668.81;5023175;28;20105;-42
2023/02/10 08:26:24;;;;;;;51.90;22.15;;;;;;;3.13;100.00;103671.97;5023483;28;20021;-42
2023/02/10 08:28:50;;;;;;;49.50;21.17;;;;;;;3.47;100.00;103677.59;5024349;28;20037;-44
2023/02/10 08:31:15;;;;;;;49.15;20.77;;;;;;;4.10;100.00;103680.13;5022724;28;20026;-44
2023/02/10 08:33:42;;;;;;;35.10;18.00;;;;;;;4.43;100.00;103668.00;5022946;28;20561;-44
2023/02/10 08:36:09;;;;;;;38.45;16.67;;;;;;;4.89;100.00;103669.28;5024558;28;20014;-44
2023/02/10 08:38:35;;;;;;;35.83;16.73;;;;;;;5.14;100.00;103639.59;5022676;28;20049;-43
2023/02/10 08:41:00;;;;;;;34.22;15.68;;;;;;;5.10;100.00;103624.66;5025448;28;20034;-42
2023/02/10 08:43:26;;;;;;;29.67;15.75;;;;;;;5.34;100.00;103605.66;5022804;28;20029;-45
2023/02/10 08:45:55;;;;;;;32.72;16.05;;;;;;;5.58;100.00;103608.84;5024898;28;20021;-42
2023/02/10 08:48:20;;;;;;;32.30;15.50;;;;;;;5.70;100.00;103605.53;5024174;28;20490;-42
2023/02/10 08:50:46;;;;;;;39.88;16.58;;;;;;;6.21;100.00;103608.97;5022193;28;20113;-43
2023/02/10 08:53:11;;;;;;;31.50;14.98;;;;;;;6.60;100.00;103600.50;5022933;28;20028;-44
2023/02/10 08:55:37;;;;;;;33.30;15.52;;;;;;;6.96;100.00;103591.31;5019661;28;20113;-44
2023/02/10 08:58:03;;;;;;;32.20;15.13;;;;;;;6.70;100.00;103600.84;5021609;28;20111;-43
2023/02/10 09:00:29;;;;;;;35.45;17.00;;;;;;;6.44;100.00;103609.53;5022682;28;20092;-42
2023/02/10 09:02:54;;;;;;;32.80;16.67;;;;;;;7.40;100.00;103597.63;5020687;28;20026;-42
2023/02/10 09:05:20;;;;;;;33.38;15.50;;;;;;;8.08;100.00;103595.16;5021873;28;20037;-43
2023/02/10 09:07:46;;;;;;;36.28;14.95;;;;;;;7.36;100.00;103596.94;5022114;28;20029;-43
2023/02/10 09:10:12;;;;;;;44.45;15.55;;;;;;;7.04;100.00;103604.25;5020309;28;20619;-43
2023/02/10 09:12:38;;;;;;;33.58;15.68;;;;;;;7.21;100.00;103613.94;5022736;28;20032;-43
2023/02/10 09:15:03;;;;;;;36.05;16.65;;;;;;;7.53;100.00;103617.38;5022159;28;20651;-43
2023/02/10 09:17:29;;;;;;;36.20;15.98;;;;;;;7.97;100.00;103612.88;5021249;28;20025;-42
2023/02/10 09:19:54;;;;;;;30.95;15.90;;;;;;;8.27;100.00;103602.00;5021377;28;20428;-42
2023/02/10 09:22:20;;;;;;;32.65;15.63;;;;;;;8.19;100.00;103609.66;5022484;28;20045;-43
2023/02/10 09:24:47;;;;;;;35.70;15.85;;;;;;;8.39;100.00;103609.28;5022598;28;20061;-43
2023/02/10 09:27:13;;;;;;;29.95;14.98;;;;;;;8.35;100.00;103610.44;5020920;28;20030;-43
2023/02/10 09:29:38;;;;;;;37.13;17.10;;;;;;;8.18;100.00;103605.28;5021761;28;20075;-43
2023/02/10 09:32:04;;;;;;;34.55;16.05;;;;;;;8.42;100.00;103608.22;5021472;28;20038;-44
2023/02/10 09:34:30;;;;;;;40.58;17.77;;;;;;;7.78;100.00;103599.75;5020386;28;20455;-46
2023/02/10 09:36:58;;;;;;;33.28;16.83;;;;;;;7.44;100.00;103601.84;5022289;28;20057;-42
2023/02/10 09:39:25;;;;;;;39.13;18.95;;;;;;;7.50;100.00;103612.16;5020787;28;20025;-42
2023/02/10 09:42:28;;;;;;;36.15;17.02;;;;;;;7.12;100.00;103612.69;5019639;28;20049;-43
2023/02/10 09:45:02;;;;;;;38.75;17.45;;;;;;;7.10;100.00;103617.25;5019611;28;20377;-43
2023/02/10 09:47:42;;;;;;;40.28;17.77;;;;;;;7.08;100.00;103607.59;5021833;28;20037;-43
2023/02/10 09:50:28;;;;;;;38.72;17.77;;;;;;;7.25;100.00;103594.91;5021851;28;20026;-43
2023/02/10 09:53:06;;;;;;;42.67;16.33;;;;;;;7.32;100.00;103599.88;5022386;28;20030;-42
2023/02/10 09:55:38;;;;;;;34.08;16.65;;;;;;;7.31;100.00;103596.34;5004261;28;20033;-45
2023/02/10 09:58:21;;;;;;;41.83;17.60;;;;;;;7.13;100.00;103598.31;5022297;28;20021;-42
2023/02/10 10:00:49;;;;;;;42.33;18.23;;;;;;;7.42;100.00;103603.75;5022799;28;20102;-43
2023/02/10 10:03:21;;;;;;;41.40;17.13;;;;;;;8.07;100.00;103605.97;5021488;28;20025;-43
2023/02/10 10:05:56;;;;;;;36.50;15.73;;;;;;;7.55;100.00;103614.56;5020905;28;20038;-42
2023/02/10 10:09:00;;;;;;;34.90;16.98;;;;;;;7.89;100.00;103613.34;5021029;28;20033;-42
2023/02/10 10:11:37;;;;;;;39.72;17.23;;;;;;;8.01;100.00;103601.84;5005940;28;20063;-43
2023/02/10 10:14:04;;;;;;;33.97;16.02;;;;;;;7.87;100.00;103599.16;5030404;28;20026;-42
2023/02/10 10:17:08;;;;;;;40.33;17.55;;;;;;;7.80;100.00;103608.56;5030614;28;20032;-43
2023/02/10 10:20:20;;;;;;;34.47;16.05;;;;;;;7.78;100.00;103607.81;5009539;28;20033;-44
2023/02/10 10:23:02;;;;;;;35.60;16.30;;;;;;;8.32;100.00;103603.44;4993355;28;20049;-43
2023/02/10 10:25:42;;;;;;;31.83;14.48;;;;;;;8.45;100.00;103590.13;5028860;28;20037;-43
2023/02/10 10:28:18;;;;;;;31.77;15.77;;;;;;;8.10;100.00;103598.56;5029193;28;20083;-43
2023/02/10 10:30:46;;;;;;;35.42;14.95;;;;;;;8.32;100.00;103578.41;5027162;28;20048;-43
2023/02/10 10:33:24;;;;;;;40.22;16.20;;;;;;;8.41;100.00;103566.25;5028866;28;20427;-44
2023/02/10 10:35:50;;;;;;;31.92;14.35;;;;;;;7.89;100.00;103570.44;5028897;28;20176;-45
2023/02/10 10:38:27;;;;;;;33.70;15.40;;;;;;;7.99;100.00;103578.78;5029205;28;20226;-42
2023/02/10 10:41:00;;;;;;;41.67;16.13;;;;;;;7.65;100.00;103579.06;5029584;28;20048;-44
2023/02/10 10:43:39;;;;;;;39.17;15.75;;;;;;;7.77;100.00;103588.19;5029394;28;20029;-43
2023/02/10 10:46:29;;;;;;;36.00;16.25;;;;;;;7.45;100.00;103587.47;5029284;28;20041;-43
2023/02/10 10:48:55;;;;;;;36.50;15.90;;;;;;;7.58;100.00;103593.81;5020638;28;20041;-43
2023/02/10 10:51:21;;;;;;;48.75;16.83;;;;;;;7.68;100.00;103588.72;5028995;28;20018;-44
2023/02/10 10:53:49;;;;;;;42.03;15.90;;;;;;;7.93;100.00;103581.84;5029466;28;20152;-43
2023/02/10 10:56:29;;;;;;;43.40;16.92;;;;;;;7.98;100.00;103580.59;5030523;28;20022;-43
2023/02/10 10:58:55;;;;;;;39.38;16.20;;;;;;;8.22;100.00;103579.97;5030795;28;20044;-43
2023/02/10 11:01:35;;;;;;;45.00;16.58;;;;;;;8.16;100.00;103583.03;5029258;28;20037;-44
2023/02/10 11:04:06;;;;;;;56.10;17.75;;;;;;;7.75;100.00;103575.81;5030016;28;20048;-43
2023/02/10 11:06:35;;;;;;;46.13;16.23;;;;;;;7.63;100.00;103580.97;5028870;28;20044;-44
2023/02/10 11:09:04;;;;;;;38.53;16.75;;;;;;;7.64;100.00;103581.88;5030176;28;20034;-43
2023/02/10 11:11:38;;;;;;;38.78;15.73;;;;;;;7.76;100.00;103577.53;5028690;28;20072;-44
2023/02/10 11:14:14;;;;;;;41.88;15.95;;;;;;;8.03;100.00;103566.88;5012450;28;20489;-41
2023/02/10 11:16:51;;;;;;;40.95;16.38;;;;;;;8.18;100.00;103570.41;5030221;28;20489;-42